createdAt,value
2022-09-09T00:00:42.103Z,22.41
2022-09-09T00:01:55.226Z,22.42
2022-09-09T00:02:57.739Z,22.42
2022-09-09T00:04:11.288Z,22.39
2022-09-09T00:05:23.782Z,22.38
2022-09-09T00:06:26.759Z,22.36
2022-09-09T00:07:39.105Z,22.41
2022-09-09T00:08:52.229Z,22.36
2022-09-09T00:09:54.670Z,22.38
2022-09-09T00:11:07.748Z,22.38
2022-09-09T00:12:20.032Z,22.36
2022-09-09T00:13:33.254Z,22.36
2022-09-09T00:14:35.624Z,22.33
2022-09-09T00:15:48.834Z,22.33
2022-09-09T00:17:01.193Z,22.35
2022-09-09T00:18:04.266Z,22.3
2022-09-09T00:19:16.545Z,22.33
2022-09-09T00:20:29.768Z,22.35
2022-09-09T00:21:42.109Z,22.35
2022-09-09T00:22:45.260Z,22.33
2022-09-09T00:23:57.541Z,22.32
2022-09-09T00:25:10.722Z,22.32
2022-09-09T00:26:13.137Z,22.3
2022-09-09T00:27:26.233Z,22.32
2022-09-09T00:28:38.710Z,22.3
2022-09-09T00:29:52.253Z,22.3
2022-09-09T00:30:54.730Z,22.29
2022-09-09T00:32:07.758Z,22.29
2022-09-09T00:33:20.101Z,22.29
2022-09-09T00:34:23.276Z,22.29
2022-09-09T00:35:35.559Z,22.28
2022-09-09T00:36:48.741Z,22.29
2022-09-09T00:37:51.153Z,22.29
2022-09-09T00:39:04.242Z,22.28
2022-09-09T00:40:16.572Z,22.26
2022-09-09T00:41:29.777Z,22.29
2022-09-09T00:42:32.417Z,22.28
2022-09-09T00:43:45.763Z,22.26
2022-09-09T00:44:58.058Z,22.28
2022-09-09T00:46:01.271Z,22.26
2022-09-09T00:47:13.759Z,22.25
2022-09-09T00:48:26.761Z,22.28
2022-09-09T00:49:39.095Z,22.25
2022-09-09T00:50:42.249Z,22.25
2022-09-09T00:51:54.594Z,22.25
2022-09-09T00:53:07.779Z,22.22
2022-09-09T00:54:10.200Z,22.23
2022-09-09T00:55:23.292Z,22.25
2022-09-09T00:56:35.602Z,22.23
2022-09-09T00:57:48.796Z,22.21
2022-09-09T00:58:51.168Z,22.22
2022-09-09T01:00:04.264Z,22.22
2022-09-09T01:01:16.669Z,22.21
2022-09-09T01:02:20.348Z,22.21
2022-09-09T01:03:33.720Z,22.22
2022-09-09T01:04:46.754Z,22.16
2022-09-09T01:05:49.181Z,22.22
2022-09-09T01:07:02.282Z,22.19
2022-09-09T01:08:14.575Z,22.19
2022-09-09T01:09:27.753Z,22.18
2022-09-09T01:10:30.209Z,22.18
2022-09-09T01:11:43.287Z,22.19
2022-09-09T01:12:55.584Z,22.19
2022-09-09T01:13:58.760Z,22.22
2022-09-09T01:15:11.038Z,22.19
2022-09-09T01:16:24.345Z,22.19
2022-09-09T01:17:36.694Z,22.18
2022-09-09T01:18:39.765Z,22.19
2022-09-09T01:19:52.053Z,22.16
2022-09-09T01:21:05.296Z,22.16
2022-09-09T01:22:07.683Z,22.16
2022-09-09T01:23:20.762Z,22.18
2022-09-09T01:24:33.071Z,22.15
2022-09-09T01:25:46.276Z,22.18
2022-09-09T01:26:48.658Z,22.16
2022-09-09T01:28:01.765Z,22.13
2022-09-09T01:29:14.065Z,22.13
2022-09-09T01:30:17.275Z,22.13
2022-09-09T01:31:29.594Z,22.15
2022-09-09T01:32:42.802Z,22.15
2022-09-09T01:33:55.082Z,22.13
2022-09-09T01:34:58.335Z,22.15
2022-09-09T01:36:10.631Z,22.13
2022-09-09T01:37:23.788Z,22.12
2022-09-09T01:38:26.193Z,22.13
2022-09-09T01:39:39.301Z,22.11
2022-09-09T01:40:51.717Z,22.13
2022-09-09T01:42:04.794Z,22.12
2022-09-09T01:43:07.168Z,22.12
2022-09-09T01:44:20.290Z,22.09
2022-09-09T01:45:32.565Z,22.09
2022-09-09T01:46:35.766Z,22.08
2022-09-09T01:47:48.023Z,22.11
2022-09-09T01:49:01.296Z,22.08
2022-09-09T01:50:13.601Z,22.09
2022-09-09T01:51:16.761Z,22.11
2022-09-09T01:52:29.087Z,22.09
2022-09-09T01:53:42.311Z,22.06
2022-09-09T01:54:44.887Z,22.09
2022-09-09T01:55:57.800Z,22.08
2022-09-09T01:57:10.101Z,22.08
2022-09-09T01:58:23.284Z,22.09
2022-09-09T01:59:25.679Z,22.09
2022-09-09T02:00:38.793Z,22.08
2022-09-09T02:01:51.067Z,22.05
2022-09-09T02:02:54.294Z,22.05
2022-09-09T02:04:06.561Z,22.06
2022-09-09T02:05:19.783Z,22.05
2022-09-09T02:06:32.365Z,22.05
2022-09-09T02:07:35.281Z,22.02
2022-09-09T02:08:47.568Z,22.03
2022-09-09T02:10:00.793Z,22.05
2022-09-09T02:11:03.163Z,22.02
2022-09-09T02:12:16.277Z,22.03
2022-09-09T02:13:28.606Z,22.02
2022-09-09T02:14:41.786Z,22.02
2022-09-09T02:15:44.183Z,22.02
2022-09-09T02:16:57.350Z,22.02
2022-09-09T02:18:09.816Z,22.01
2022-09-09T02:19:22.822Z,22.02
2022-09-09T02:20:25.237Z,21.99
2022-09-09T02:21:38.326Z,22.02
2022-09-09T02:22:50.726Z,21.98
2022-09-09T02:23:53.838Z,21.99
2022-09-09T02:25:06.190Z,21.97
2022-09-09T02:26:19.277Z,21.98
2022-09-09T02:27:21.662Z,21.99
2022-09-09T02:28:35.007Z,21.99
2022-09-09T02:29:47.780Z,22.02
2022-09-09T02:31:00.843Z,22.01
2022-09-09T02:32:03.406Z,21.99
2022-09-09T02:33:16.281Z,22.02
2022-09-09T02:34:28.765Z,22.02
2022-09-09T02:35:31.791Z,21.99
2022-09-09T02:36:44.130Z,21.99
2022-09-09T02:37:57.320Z,21.97
2022-09-09T02:39:09.591Z,21.98
2022-09-09T02:40:12.879Z,21.97
2022-09-09T02:41:25.265Z,21.97
2022-09-09T02:42:38.278Z,21.98
2022-09-09T02:43:40.660Z,21.95
2022-09-09T02:44:53.803Z,21.95
2022-09-09T02:46:06.122Z,21.97
2022-09-09T02:47:19.313Z,21.95
2022-09-09T02:48:21.683Z,21.95
2022-09-09T02:49:34.795Z,21.95
2022-09-09T02:50:47.126Z,21.94
2022-09-09T02:52:00.320Z,21.92
2022-09-09T02:53:02.738Z,21.92
2022-09-09T02:54:15.779Z,21.94
2022-09-09T02:55:28.111Z,21.91
2022-09-09T02:56:31.295Z,21.92
2022-09-09T02:57:43.587Z,21.92
2022-09-09T02:58:56.823Z,21.88
2022-09-09T03:00:09.166Z,21.94
2022-09-09T03:01:12.380Z,21.91
2022-09-09T03:02:24.812Z,21.9
2022-09-09T03:03:37.833Z,21.9
2022-09-09T03:04:40.235Z,21.9
2022-09-09T03:05:53.342Z,21.9
2022-09-09T03:07:05.681Z,21.9
2022-09-09T03:08:18.794Z,21.9
2022-09-09T03:09:21.176Z,21.91
2022-09-09T03:10:34.355Z,21.9
2022-09-09T03:11:46.723Z,21.9
2022-09-09T03:12:49.814Z,21.88
2022-09-09T03:14:02.107Z,21.88
2022-09-09T03:15:15.312Z,21.88
2022-09-09T03:16:27.638Z,21.85
2022-09-09T03:17:30.808Z,21.87
2022-09-09T03:18:43.094Z,21.87
2022-09-09T03:19:56.349Z,21.87
2022-09-09T03:20:58.797Z,21.85
2022-09-09T03:22:11.853Z,21.82
2022-09-09T03:23:24.268Z,21.84
2022-09-09T03:24:37.311Z,21.84
2022-09-09T03:25:39.762Z,21.82
2022-09-09T03:26:52.804Z,21.85
2022-09-09T03:28:05.090Z,21.82
2022-09-09T03:29:08.300Z,21.84
2022-09-09T03:30:20.600Z,21.84
2022-09-09T03:31:33.854Z,21.81
2022-09-09T03:32:48.924Z,21.82
2022-09-09T03:33:52.390Z,21.84
2022-09-09T03:35:04.914Z,21.81
2022-09-09T03:36:08.325Z,21.82
2022-09-09T03:37:20.624Z,21.82
2022-09-09T03:38:33.823Z,21.82
2022-09-09T03:39:46.246Z,21.82
2022-09-09T03:40:49.313Z,21.81
2022-09-09T03:42:01.613Z,21.81
2022-09-09T03:43:14.812Z,21.8
2022-09-09T03:44:17.258Z,21.8
2022-09-09T03:45:30.384Z,21.78
2022-09-09T03:46:42.710Z,21.78
2022-09-09T03:47:55.815Z,21.8
2022-09-09T03:48:58.212Z,21.78
2022-09-09T03:50:11.315Z,21.77
2022-09-09T03:51:23.669Z,21.78
2022-09-09T03:52:36.834Z,21.78
2022-09-09T03:53:39.249Z,21.77
2022-09-09T03:54:52.383Z,21.78
2022-09-09T03:56:04.900Z,21.77
2022-09-09T03:57:07.841Z,21.77
2022-09-09T03:58:20.123Z,21.75
2022-09-09T03:59:33.310Z,21.75
2022-09-09T04:00:45.652Z,21.77
2022-09-09T04:01:48.862Z,21.75
2022-09-09T04:03:01.266Z,21.74
2022-09-09T04:04:14.315Z,21.75
2022-09-09T04:05:26.495Z,21.77
2022-09-09T04:06:29.857Z,21.75
2022-09-09T04:07:42.173Z,21.74
2022-09-09T04:08:55.315Z,21.75
2022-09-09T04:09:57.688Z,21.72
2022-09-09T04:11:10.835Z,21.75
2022-09-09T04:12:23.160Z,21.74
2022-09-09T04:13:36.313Z,21.74
2022-09-09T04:14:38.734Z,21.74
2022-09-09T04:15:51.836Z,21.74
2022-09-09T04:17:04.145Z,21.74
2022-09-09T04:18:20.001Z,21.74
2022-09-09T04:19:22.669Z,21.74
2022-09-09T04:20:35.865Z,21.74
2022-09-09T04:21:38.288Z,21.74
2022-09-09T04:22:51.343Z,21.72
2022-09-09T04:24:04.694Z,21.75
2022-09-09T04:25:07.852Z,21.74
2022-09-09T04:26:20.185Z,21.74
2022-09-09T04:27:33.376Z,21.75
2022-09-09T04:28:45.672Z,21.72
2022-09-09T04:29:48.839Z,21.72
2022-09-09T04:31:01.192Z,21.74
2022-09-09T04:32:14.351Z,21.72
2022-09-09T04:33:16.835Z,21.72
2022-09-09T04:34:29.834Z,21.74
2022-09-09T04:35:42.169Z,21.74
2022-09-09T04:36:55.381Z,21.72
2022-09-09T04:37:57.778Z,21.72
2022-09-09T04:39:10.901Z,21.74
2022-09-09T04:40:23.191Z,21.7
2022-09-09T04:41:26.383Z,21.71
2022-09-09T04:42:38.718Z,21.72
2022-09-09T04:43:51.878Z,21.74
2022-09-09T04:45:04.230Z,21.74
2022-09-09T04:46:07.467Z,21.72
2022-09-09T04:47:19.875Z,21.74
2022-09-09T04:48:32.931Z,21.74
2022-09-09T04:49:35.378Z,21.74
2022-09-09T04:50:48.875Z,21.74
2022-09-09T04:52:01.167Z,21.77
2022-09-09T04:53:14.364Z,21.75
2022-09-09T04:54:16.747Z,21.75
2022-09-09T04:55:29.823Z,21.75
2022-09-09T04:56:51.884Z,21.75
2022-09-09T04:57:45.351Z,21.77
2022-09-09T04:58:58.077Z,21.81
2022-09-09T05:00:11.381Z,21.78
2022-09-09T05:01:23.823Z,21.8
2022-09-09T05:02:31.356Z,21.8
2022-09-09T05:03:34.057Z,21.84
2022-09-09T05:04:47.870Z,21.84
2022-09-09T05:06:00.170Z,21.82
2022-09-09T05:07:13.367Z,21.85
2022-09-09T05:08:15.747Z,21.84
2022-09-09T05:09:29.347Z,21.84
2022-09-09T05:10:41.644Z,21.84
2022-09-09T05:11:44.862Z,21.87
2022-09-09T05:12:57.198Z,21.87
2022-09-09T05:14:10.340Z,21.85
2022-09-09T05:15:12.721Z,21.87
2022-09-09T05:16:25.914Z,21.88
2022-09-09T05:17:38.296Z,21.87
2022-09-09T05:18:51.848Z,21.88
2022-09-09T05:19:54.237Z,21.87
2022-09-09T05:21:07.390Z,21.84
2022-09-09T05:22:19.628Z,21.82
2022-09-09T05:23:22.876Z,21.82
2022-09-09T05:24:35.139Z,21.87
2022-09-09T05:25:48.353Z,21.88
2022-09-09T05:27:00.589Z,21.92
2022-09-09T05:28:03.841Z,21.9
2022-09-09T05:29:16.071Z,21.9
2022-09-09T05:30:28.850Z,21.88
2022-09-09T05:31:31.223Z,21.87
2022-09-09T05:32:44.389Z,21.82
2022-09-09T05:33:56.605Z,21.81
2022-09-09T05:35:09.388Z,21.81
2022-09-09T05:36:11.737Z,21.8
2022-09-09T05:37:25.068Z,21.85
2022-09-09T05:38:38.887Z,21.84
2022-09-09T05:39:45.448Z,21.82
2022-09-09T05:40:57.835Z,21.88
2022-09-09T05:42:00.853Z,21.88
2022-09-09T05:43:12.988Z,21.97
2022-09-09T05:44:26.386Z,21.95
2022-09-09T05:45:38.579Z,21.97
2022-09-09T05:46:41.917Z,22.01
2022-09-09T05:47:54.174Z,21.98
2022-09-09T05:49:06.849Z,21.97
2022-09-09T05:50:09.190Z,21.92
2022-09-09T05:51:22.376Z,21.88
2022-09-09T05:52:34.511Z,21.91
2022-09-09T05:53:47.353Z,21.97
2022-09-09T05:54:49.602Z,21.94
2022-09-09T05:56:02.402Z,21.92
2022-09-09T05:57:14.572Z,21.99
2022-09-09T05:58:27.391Z,22.01
2022-09-09T05:59:29.689Z,22.06
2022-09-09T06:01:02.391Z,22.12
2022-09-09T06:01:54.937Z,22.11
2022-09-09T06:02:57.426Z,22.06
2022-09-09T06:04:10.378Z,21.99
2022-09-09T06:05:22.660Z,21.98
2022-09-09T06:06:35.361Z,21.95
2022-09-09T06:07:37.610Z,21.87
2022-09-09T06:08:50.373Z,21.77
2022-09-09T06:10:02.537Z,21.78
2022-09-09T06:11:16.869Z,21.81
2022-09-09T06:12:19.210Z,21.84
2022-09-09T06:13:32.375Z,21.85
2022-09-09T06:14:46.428Z,21.8
2022-09-09T06:15:49.924Z,21.67
2022-09-09T06:17:02.279Z,21.61
2022-09-09T06:18:15.378Z,21.54
2022-09-09T06:19:17.756Z,21.6
2022-09-09T06:20:30.887Z,21.53
2022-09-09T06:21:43.160Z,21.48
2022-09-09T06:22:46.349Z,21.37
2022-09-09T06:24:01.074Z,21.33
2022-09-09T06:25:14.384Z,21.33
2022-09-09T06:26:16.781Z,21.33
2022-09-09T06:27:29.904Z,21.33
2022-09-09T06:28:42.185Z,21.2
2022-09-09T06:29:45.397Z,20.8
2022-09-09T06:30:57.685Z,20.85
2022-09-09T06:32:10.916Z,20.72
2022-09-09T06:33:23.259Z,20.51
2022-09-09T06:34:36.485Z,20.51
2022-09-09T06:35:38.962Z,20.22
2022-09-09T06:36:51.927Z,20.0
2022-09-09T06:37:54.837Z,19.93
2022-09-09T06:39:12.207Z,19.87
2022-09-09T06:40:17.024Z,19.8
2022-09-09T06:41:30.896Z,19.64
2022-09-09T06:42:33.996Z,19.59
2022-09-09T06:43:47.382Z,19.57
2022-09-09T06:45:00.768Z,19.49
2022-09-09T06:46:03.918Z,19.23
2022-09-09T06:47:16.354Z,19.32
2022-09-09T06:48:29.427Z,19.39
2022-09-09T06:49:45.479Z,19.46
2022-09-09T06:50:50.906Z,19.56
2022-09-09T06:51:54.140Z,19.36
2022-09-09T06:53:07.382Z,19.56
2022-09-09T06:54:19.765Z,19.09
2022-09-09T06:55:32.927Z,19.29
2022-09-09T06:56:35.426Z,19.4
2022-09-09T06:57:48.898Z,19.55
2022-09-09T06:59:01.364Z,19.46
2022-09-09T07:00:04.912Z,18.96
2022-09-09T07:01:17.425Z,18.77
2022-09-09T07:02:32.359Z,18.89
2022-09-09T07:03:34.900Z,18.94
2022-09-09T07:04:48.430Z,18.64
2022-09-09T07:06:00.976Z,18.77
2022-09-09T07:07:04.395Z,18.81
2022-09-09T07:08:16.884Z,18.73
2022-09-09T07:09:30.445Z,18.77
2022-09-09T07:10:33.077Z,18.69
2022-09-09T07:11:46.456Z,18.69
2022-09-09T07:12:58.942Z,18.66
2022-09-09T07:14:12.481Z,18.8
2022-09-09T07:15:15.292Z,18.84
2022-09-09T07:16:28.667Z,18.92
2022-09-09T07:17:41.204Z,18.78
2022-09-09T07:18:44.406Z,18.53
2022-09-09T07:19:56.892Z,18.26
2022-09-09T07:21:10.394Z,18.0
2022-09-09T07:22:13.004Z,18.27
2022-09-09T07:23:26.398Z,18.5
2022-09-09T07:24:38.876Z,18.74
2022-09-09T07:25:51.891Z,18.95
2022-09-09T07:26:54.438Z,19.19
2022-09-09T07:28:08.052Z,19.4
2022-09-09T07:29:21.026Z,19.62
2022-09-09T07:30:27.536Z,19.81
2022-09-09T07:31:40.375Z,20.04
2022-09-09T07:32:53.412Z,20.24
2022-09-09T07:33:55.828Z,20.41
2022-09-09T07:35:08.892Z,20.59
2022-09-09T07:36:21.238Z,20.73
2022-09-09T07:37:24.425Z,20.89
2022-09-09T07:38:36.807Z,21.03
2022-09-09T07:39:50.033Z,21.17
2022-09-09T07:41:02.360Z,21.3
2022-09-09T07:42:05.427Z,21.41
2022-09-09T07:43:17.673Z,21.51
2022-09-09T07:44:30.415Z,21.61
2022-09-09T07:45:32.705Z,21.72
2022-09-09T07:46:46.252Z,21.8
2022-09-09T07:47:58.660Z,21.87
2022-09-09T07:49:11.413Z,21.94
2022-09-09T07:50:13.757Z,22.03
2022-09-09T07:51:26.942Z,22.09
2022-09-09T07:52:39.122Z,22.15
2022-09-09T07:53:42.449Z,22.19
2022-09-09T07:54:54.560Z,22.26
2022-09-09T07:56:07.429Z,22.32
2022-09-09T07:57:09.746Z,22.36
2022-09-09T07:58:22.922Z,22.43
2022-09-09T07:59:35.208Z,22.48
2022-09-09T08:00:47.925Z,22.54
2022-09-09T08:01:50.186Z,22.59
2022-09-09T08:03:03.982Z,22.62
2022-09-09T08:04:16.301Z,22.7
2022-09-09T08:05:19.575Z,22.76
2022-09-09T08:06:31.688Z,22.79
2022-09-09T08:07:44.442Z,22.8
2022-09-09T08:08:46.638Z,22.88
2022-09-09T08:09:59.450Z,22.91
2022-09-09T08:11:11.652Z,22.97
2022-09-09T08:12:24.433Z,23.01
2022-09-09T08:13:26.615Z,23.03
2022-09-09T08:14:39.410Z,23.05
2022-09-09T08:15:51.472Z,23.08
2022-09-09T08:17:04.441Z,23.11
2022-09-09T08:18:06.689Z,23.17
2022-09-09T08:19:19.431Z,23.18
2022-09-09T08:20:31.530Z,23.23
2022-09-09T08:21:44.429Z,23.23
2022-09-09T08:22:46.696Z,23.27
2022-09-09T08:23:59.951Z,23.25
2022-09-09T08:25:12.033Z,23.27
2022-09-09T08:26:14.917Z,23.27
2022-09-09T08:27:27.000Z,23.28
2022-09-09T08:28:39.945Z,23.32
2022-09-09T08:29:51.953Z,23.32
2022-09-09T08:30:55.000Z,23.35
2022-09-09T08:32:07.150Z,23.37
2022-09-09T08:33:19.926Z,23.37
2022-09-09T08:34:32.003Z,23.41
2022-09-09T08:35:34.959Z,23.44
2022-09-09T08:36:46.960Z,23.47
2022-09-09T08:37:59.943Z,23.49
2022-09-09T08:39:12.039Z,23.54
2022-09-09T08:40:14.989Z,23.56
2022-09-09T08:41:27.172Z,23.59
2022-09-09T08:42:39.974Z,23.58
2022-09-09T08:43:42.221Z,23.59
2022-09-09T08:44:54.947Z,23.61
2022-09-09T08:46:07.066Z,23.59
2022-09-09T08:47:19.966Z,23.61
2022-09-09T08:48:22.129Z,23.64
2022-09-09T08:49:34.968Z,23.65
2022-09-09T08:50:47.143Z,23.68
2022-09-09T08:51:59.968Z,23.68
2022-09-09T08:53:02.287Z,23.68
2022-09-09T08:54:21.916Z,23.74
2022-09-09T08:55:27.987Z,23.76
2022-09-09T08:56:30.215Z,23.82
2022-09-09T08:57:42.988Z,23.88
2022-09-09T08:58:55.069Z,23.89
2022-09-09T09:00:07.989Z,23.93
2022-09-09T09:01:10.313Z,23.99
2022-09-09T09:02:23.450Z,24.0
2022-09-09T09:03:35.442Z,24.02
2022-09-09T09:04:48.497Z,24.05
2022-09-09T09:05:50.730Z,24.1
2022-09-09T09:07:13.472Z,24.09
2022-09-09T09:08:15.583Z,24.11
2022-09-09T09:09:18.461Z,24.11
2022-09-09T09:10:41.596Z,24.13
2022-09-09T09:11:46.123Z,24.13
2022-09-09T09:12:48.248Z,24.14
2022-09-09T09:14:00.981Z,24.13
2022-09-09T09:15:13.018Z,24.14
2022-09-09T09:16:25.954Z,24.1
2022-09-09T09:17:28.086Z,24.11
2022-09-09T09:18:40.974Z,24.11
2022-09-09T09:19:53.031Z,24.1
2022-09-09T09:20:55.973Z,24.09
2022-09-09T09:22:08.099Z,24.11
2022-09-09T09:23:20.941Z,24.11
2022-09-09T09:24:32.909Z,24.1
2022-09-09T09:25:35.982Z,24.07
2022-09-09T09:26:48.036Z,24.09
2022-09-09T09:28:00.994Z,24.1
2022-09-09T09:29:13.055Z,24.07
2022-09-09T09:30:25.593Z,24.07
2022-09-09T09:31:31.928Z,24.07
2022-09-09T09:32:34.993Z,24.07
2022-09-09T09:33:46.970Z,24.06
2022-09-09T09:34:59.966Z,24.05
2022-09-09T09:36:12.015Z,24.07
2022-09-09T09:37:15.016Z,24.07
2022-09-09T09:40:04.153Z,24.09
2022-09-09T09:40:58.545Z,24.09
2022-09-09T09:42:03.867Z,24.1
2022-09-09T09:43:09.689Z,24.13
2022-09-09T09:44:11.930Z,24.17
2022-09-09T09:45:24.732Z,24.19
2022-09-09T09:46:36.806Z,24.23
2022-09-09T09:47:49.642Z,24.26
2022-09-09T09:48:51.803Z,24.29
2022-09-09T09:50:04.616Z,24.3
2022-09-09T09:51:16.624Z,24.37
2022-09-09T09:52:39.148Z,24.36
2022-09-09T09:53:31.460Z,24.37
2022-09-09T09:54:44.123Z,24.4
2022-09-09T09:55:56.151Z,24.39
2022-09-09T09:57:09.157Z,24.4
2022-09-09T09:58:13.001Z,24.44
2022-09-09T09:59:39.280Z,24.43
2022-09-09T10:00:32.374Z,24.44
2022-09-09T10:01:45.158Z,24.44
2022-09-09T10:02:47.463Z,24.47
2022-09-09T10:04:00.134Z,24.47
2022-09-09T10:05:12.129Z,24.47
2022-09-09T10:06:25.136Z,24.47
2022-09-09T10:07:27.384Z,24.47
2022-09-09T10:08:40.242Z,24.43
2022-09-09T10:09:52.227Z,24.47
2022-09-09T10:11:05.162Z,24.43
2022-09-09T10:12:07.712Z,24.43
2022-09-09T10:14:46.977Z,24.43
2022-09-09T10:15:39.407Z,24.44
2022-09-09T10:16:52.087Z,24.43
2022-09-09T10:17:54.185Z,24.44
2022-09-09T10:19:07.089Z,24.46
2022-09-09T10:20:19.147Z,24.46
2022-09-09T10:21:33.316Z,24.49
2022-09-09T10:22:35.815Z,24.53
2022-09-09T10:23:49.095Z,24.53
2022-09-09T10:25:01.102Z,24.54
2022-09-09T10:26:04.124Z,24.58
2022-09-09T10:27:16.197Z,24.61
2022-09-09T10:28:29.153Z,24.61
2022-09-09T10:29:31.449Z,24.63
2022-09-09T10:30:44.131Z,24.64
2022-09-09T10:31:56.191Z,24.64
2022-09-09T10:34:10.324Z,24.65
2022-09-09T10:35:23.094Z,24.65
2022-09-09T10:36:35.095Z,24.67
2022-09-09T10:37:48.107Z,24.67
2022-09-09T10:38:50.264Z,24.67
2022-09-09T10:40:03.120Z,24.65
2022-09-09T10:41:15.262Z,24.67
2022-09-09T10:42:28.109Z,24.64
2022-09-09T10:43:30.360Z,24.65
2022-09-09T10:44:43.122Z,24.64
2022-09-09T10:45:55.183Z,24.63
2022-09-09T10:47:08.607Z,24.64
2022-09-09T10:48:10.887Z,24.64
2022-09-09T10:49:23.607Z,24.64
2022-09-09T10:51:00.040Z,24.63
2022-09-09T10:51:46.576Z,24.61
2022-09-09T10:52:48.676Z,24.64
2022-09-09T10:54:01.619Z,24.63
2022-09-09T10:55:13.612Z,24.64
2022-09-09T10:56:16.609Z,24.64
2022-09-09T10:57:28.575Z,24.63
2022-09-09T10:58:41.177Z,24.61
2022-09-09T10:59:53.167Z,24.63
2022-09-09T11:00:58.181Z,24.63
2022-09-09T11:02:10.363Z,24.61
2022-09-09T11:03:23.101Z,24.63
2022-09-09T11:04:25.339Z,24.63
2022-09-09T11:05:38.107Z,24.63
2022-09-09T11:06:50.140Z,24.64
2022-09-09T11:08:03.110Z,24.65
2022-09-09T11:09:05.312Z,24.65
2022-09-09T11:10:18.128Z,24.65
2022-09-09T11:11:30.137Z,24.64
2022-09-09T11:12:43.091Z,24.64
2022-09-09T11:13:45.272Z,24.63
2022-09-09T11:14:58.103Z,24.61
2022-09-09T11:16:10.106Z,24.64
2022-09-09T11:17:13.103Z,24.63
2022-09-09T11:18:25.127Z,24.64
2022-09-09T11:19:38.141Z,24.65
2022-09-09T11:20:50.168Z,24.64
2022-09-09T11:21:53.101Z,24.68
2022-09-09T11:23:05.111Z,24.68
2022-09-09T11:24:18.101Z,24.7
2022-09-09T11:25:30.094Z,24.68
2022-09-09T11:26:33.118Z,24.71
2022-09-09T11:27:45.155Z,24.72
2022-09-09T11:29:02.742Z,24.75
2022-09-09T11:30:06.909Z,24.77
2022-09-09T11:31:19.671Z,24.77
2022-09-09T11:32:21.912Z,24.75
2022-09-09T11:33:34.594Z,24.78
2022-09-09T11:34:46.567Z,24.78
2022-09-09T11:35:59.101Z,24.83
2022-09-09T11:37:11.257Z,24.83
2022-09-09T11:38:14.108Z,24.83
2022-09-09T11:39:26.015Z,24.87
2022-09-09T11:40:38.618Z,24.87
2022-09-09T11:41:40.697Z,24.88
2022-09-09T11:42:53.640Z,24.88
2022-09-09T11:44:05.608Z,24.9
2022-09-09T11:45:08.606Z,24.87
2022-09-09T11:46:20.640Z,24.9
2022-09-09T11:47:33.631Z,24.9
2022-09-09T11:48:45.556Z,24.9
2022-09-09T11:49:48.625Z,24.9
2022-09-09T11:51:16.048Z,24.87
2022-09-09T11:52:10.155Z,24.88
2022-09-09T11:53:22.137Z,24.9
2022-09-09T11:54:35.287Z,24.9
2022-09-09T11:55:37.444Z,24.88
2022-09-09T11:56:50.635Z,24.88
2022-09-09T11:58:02.650Z,24.88
2022-09-09T11:59:05.725Z,24.88
2022-09-09T12:00:17.714Z,24.91
2022-09-09T12:01:40.122Z,24.9
2022-09-09T12:02:42.287Z,24.87
2022-09-09T12:03:45.178Z,24.91
2022-09-09T12:04:57.265Z,24.88
2022-09-09T12:06:10.158Z,24.9
2022-09-09T12:07:22.130Z,24.9
2022-09-09T12:08:25.128Z,24.9
2022-09-09T12:09:37.098Z,24.88
2022-09-09T12:10:49.621Z,24.91
2022-09-09T12:12:01.920Z,24.91
2022-09-09T12:13:05.429Z,24.91
2022-09-09T12:14:17.396Z,24.92
2022-09-09T12:15:30.298Z,24.94
2022-09-09T12:16:32.528Z,24.91
2022-09-09T12:17:45.152Z,24.91
2022-09-09T12:18:57.134Z,24.92
2022-09-09T12:20:10.461Z,24.94
2022-09-09T12:21:12.833Z,24.94
2022-09-09T12:22:25.640Z,24.94
2022-09-09T12:23:57.307Z,24.94
2022-09-09T12:24:50.160Z,24.94
2022-09-09T12:25:52.219Z,24.95
2022-09-09T12:27:05.162Z,24.97
2022-09-09T12:28:17.135Z,24.95
2022-09-09T12:29:30.496Z,24.95
2022-09-09T12:30:32.852Z,24.95
2022-09-09T12:31:45.975Z,24.98
2022-09-09T12:32:57.999Z,24.95
2022-09-09T12:34:00.629Z,24.97
2022-09-09T12:35:12.617Z,24.97
2022-09-09T12:36:25.134Z,24.95
2022-09-09T12:37:37.111Z,24.95
2022-09-09T12:38:40.162Z,24.97
2022-09-09T12:39:52.252Z,24.97
2022-09-09T12:41:06.708Z,24.95
2022-09-09T12:42:08.771Z,25.0
2022-09-09T12:43:21.642Z,24.98
2022-09-09T12:44:33.601Z,25.0
2022-09-09T12:45:46.171Z,24.98
2022-09-09T12:46:48.406Z,25.01
2022-09-09T12:48:01.144Z,25.0
2022-09-09T12:49:13.131Z,25.01
2022-09-09T12:50:25.650Z,25.01
2022-09-09T12:51:27.771Z,25.05
2022-09-09T12:52:40.677Z,25.04
2022-09-09T12:53:52.583Z,25.04
2022-09-09T12:55:05.172Z,24.95
2022-09-09T12:56:07.239Z,24.85
2022-09-09T12:57:20.180Z,24.72
2022-09-09T12:58:32.221Z,24.67
2022-09-09T12:59:35.145Z,24.51
2022-09-09T13:00:47.303Z,24.37
2022-09-09T13:02:00.326Z,24.27
2022-09-09T13:03:12.466Z,24.16
2022-09-09T13:04:15.668Z,24.09
2022-09-09T13:05:27.658Z,24.02
2022-09-09T13:06:40.646Z,23.96
2022-09-09T13:07:52.654Z,23.88
2022-09-09T13:08:55.660Z,23.81
2022-09-09T13:10:08.290Z,23.75
2022-09-09T13:11:21.145Z,23.66
2022-09-09T13:12:23.383Z,23.64
2022-09-09T13:13:36.543Z,23.61
2022-09-09T13:14:50.619Z,23.62
2022-09-09T13:15:53.678Z,23.56
2022-09-09T13:17:05.785Z,23.52
2022-09-09T13:18:18.729Z,23.47
2022-09-09T13:19:30.925Z,23.45
2022-09-09T13:20:34.204Z,23.38
2022-09-09T13:21:46.316Z,23.34
2022-09-09T13:22:59.137Z,23.35
2022-09-09T13:24:11.200Z,23.35
2022-09-09T13:25:14.184Z,23.41
2022-09-09T13:26:26.297Z,23.48
2022-09-09T13:27:39.180Z,23.49
2022-09-09T13:28:41.361Z,23.55
2022-09-09T13:29:54.166Z,23.61
2022-09-09T13:31:06.286Z,23.58
2022-09-09T13:32:19.180Z,23.59
2022-09-09T13:33:21.340Z,23.59
2022-09-09T13:34:34.189Z,23.65
2022-09-09T13:35:46.280Z,23.69
2022-09-09T13:36:59.927Z,23.71
2022-09-09T13:38:02.298Z,23.75
2022-09-09T13:39:15.185Z,23.71
2022-09-09T13:40:27.284Z,23.75
2022-09-09T13:41:30.149Z,23.75
2022-09-09T13:42:42.235Z,23.69
2022-09-09T13:43:55.185Z,23.66
2022-09-09T13:45:07.225Z,23.59
2022-09-09T13:46:10.270Z,23.52
2022-09-09T13:47:22.501Z,23.47
2022-09-09T13:48:35.183Z,23.51
2022-09-09T13:49:47.300Z,23.54
2022-09-09T13:50:50.273Z,23.59
2022-09-09T13:52:02.299Z,23.69
2022-09-09T13:53:15.168Z,23.75
2022-09-09T13:54:27.265Z,23.76
2022-09-09T13:55:30.704Z,23.79
2022-09-09T13:56:42.734Z,23.78
2022-09-09T13:57:55.685Z,23.81
2022-09-09T13:58:57.919Z,23.78
2022-09-09T14:00:10.654Z,23.76
2022-09-09T14:01:25.308Z,23.79
2022-09-09T14:02:32.259Z,23.82
2022-09-09T14:03:44.470Z,23.85
2022-09-09T14:04:47.667Z,23.88
2022-09-09T14:05:59.755Z,23.9
2022-09-09T14:07:12.694Z,23.89
2022-09-09T14:08:26.550Z,23.88
2022-09-09T14:09:29.671Z,23.82
2022-09-09T14:10:42.311Z,23.75
2022-09-09T14:11:55.168Z,23.75
2022-09-09T14:12:57.425Z,23.74
2022-09-09T14:14:10.200Z,23.69
2022-09-09T14:15:22.913Z,23.64
2022-09-09T14:16:26.240Z,23.59
2022-09-09T14:17:38.531Z,23.61
2022-09-09T14:18:51.693Z,23.64
2022-09-09T14:20:03.797Z,23.61
2022-09-09T14:21:06.661Z,23.62
2022-09-09T14:22:18.773Z,23.59
2022-09-09T14:23:31.691Z,23.64
2022-09-09T14:24:33.907Z,23.62
2022-09-09T14:25:46.713Z,23.59
2022-09-09T14:26:58.745Z,23.61
2022-09-09T14:28:11.701Z,23.59
2022-09-09T14:29:13.949Z,23.61
2022-09-09T14:30:26.666Z,23.61
2022-09-09T14:31:38.800Z,23.59
2022-09-09T14:32:51.703Z,23.61
2022-09-09T14:33:53.968Z,23.58
2022-09-09T14:35:06.689Z,23.61
2022-09-09T14:36:18.798Z,23.58
2022-09-09T14:37:21.671Z,23.64
2022-09-09T14:38:33.723Z,23.64
2022-09-09T14:39:46.749Z,23.68
2022-09-09T14:40:58.964Z,23.65
2022-09-09T14:42:02.170Z,23.62
2022-09-09T14:43:14.287Z,23.64
2022-09-09T14:44:27.271Z,23.64
2022-09-09T14:45:59.077Z,23.56
2022-09-09T14:46:52.196Z,23.59
2022-09-09T14:47:54.446Z,23.58
2022-09-09T14:49:07.212Z,23.59
2022-09-09T14:50:09.417Z,23.58
2022-09-09T14:51:22.167Z,23.58
2022-09-09T14:52:34.272Z,23.62
2022-09-09T14:53:47.160Z,23.62
2022-09-09T14:54:49.405Z,23.61
2022-09-09T14:56:02.197Z,23.61
2022-09-09T14:57:14.312Z,23.54
2022-09-09T14:58:30.431Z,23.49
2022-09-09T14:59:34.198Z,23.45
2022-09-09T15:00:47.163Z,23.41
2022-09-09T15:01:49.493Z,23.41
2022-09-09T15:03:02.223Z,23.38
2022-09-09T15:04:14.339Z,23.32
2022-09-09T15:05:27.168Z,23.3